createdAt,value
2018-11-03T00:00:52.497Z,19.17
2018-11-03T00:03:20.712Z,17.60
2018-11-03T00:05:48.912Z,18.30
2018-11-03T00:08:17.086Z,18.17
2018-11-03T00:10:45.250Z,19.27
2018-11-03T00:13:13.427Z,19.17
2018-11-03T00:15:41.591Z,17.63
2018-11-03T00:18:09.786Z,17.87
2018-11-03T00:20:38.126Z,18.97
2018-11-03T00:23:06.601Z,17.90
2018-11-03T00:25:34.779Z,18.53
2018-11-03T00:28:02.975Z,17.60
2018-11-03T00:30:31.147Z,17.33
2018-11-03T00:32:59.307Z,18.20
2018-11-03T00:35:27.588Z,16.87
2018-11-03T00:37:56.054Z,16.77
2018-11-03T00:40:24.238Z,17.17
2018-11-03T00:42:52.488Z,17.43
2018-11-03T00:45:20.581Z,16.40
2018-11-03T00:47:48.994Z,17.17
2018-11-03T00:50:17.167Z,16.60
2018-11-03T00:52:45.376Z,16.43
2018-11-03T00:55:13.888Z,16.53
2018-11-03T00:57:42.562Z,16.63
2018-11-03T01:00:13.333Z,16.27
2018-11-03T01:02:43.134Z,16.93
2018-11-03T01:05:13.568Z,15.87
2018-11-03T01:07:42.527Z,16.60
2018-11-03T01:10:11.177Z,16.23
2018-11-03T01:12:40.017Z,16.73
2018-11-03T01:15:10.362Z,17.53
2018-11-03T01:17:38.747Z,18.53
2018-11-03T01:20:08.450Z,15.97
2018-11-03T01:22:36.703Z,16.23
2018-11-03T01:25:05.063Z,16.50
2018-11-03T01:27:33.228Z,16.63
2018-11-03T01:30:01.415Z,15.53
2018-11-03T01:32:29.663Z,14.23
2018-11-03T01:34:57.763Z,16.13
2018-11-03T01:37:25.992Z,15.57
2018-11-03T01:39:54.205Z,16.03
2018-11-03T01:42:22.370Z,14.80
2018-11-03T01:44:50.551Z,14.27
2018-11-03T01:47:18.723Z,15.23
2018-11-03T01:49:46.898Z,13.43
2018-11-03T01:52:15.092Z,15.20
2018-11-03T01:54:43.262Z,14.23
2018-11-03T01:57:11.449Z,14.60
2018-11-03T01:59:39.705Z,14.80
2018-11-03T02:02:07.945Z,16.07
2018-11-03T02:04:36.143Z,14.93
2018-11-03T02:07:04.473Z,15.97
2018-11-03T02:09:32.672Z,15.67
2018-11-03T02:12:00.851Z,16.40
2018-11-03T02:14:29.042Z,15.90
2018-11-03T02:16:57.252Z,15.37
2018-11-03T02:19:26.658Z,15.90
2018-11-03T02:21:54.864Z,14.53
2018-11-03T02:24:23.100Z,14.43
2018-11-03T02:26:51.280Z,15.77
2018-11-03T02:29:19.463Z,15.20
2018-11-03T02:31:47.644Z,15.60
2018-11-03T02:34:15.827Z,16.97
2018-11-03T02:36:44.076Z,16.17
2018-11-03T02:39:12.329Z,16.47
2018-11-03T02:41:40.532Z,15.07
2018-11-03T02:44:08.800Z,16.40
2018-11-03T02:46:37.024Z,16.20
2018-11-03T02:49:05.900Z,16.67
2018-11-03T02:51:34.082Z,16.07
2018-11-03T02:54:02.289Z,15.63
2018-11-03T02:56:30.482Z,15.10
2018-11-03T02:58:58.707Z,14.40
2018-11-03T03:01:26.911Z,15.73
2018-11-03T03:03:55.256Z,15.53
2018-11-03T03:06:23.439Z,15.57
2018-11-03T03:08:51.656Z,15.07
2018-11-03T03:11:19.858Z,16.20
2018-11-03T03:13:48.076Z,13.63
2018-11-03T03:16:16.303Z,14.90
2018-11-03T03:18:44.624Z,15.60
2018-11-03T03:21:12.849Z,15.53
2018-11-03T03:23:41.026Z,15.20
2018-11-03T03:26:09.535Z,15.47
2018-11-03T03:28:37.712Z,15.67
2018-11-03T03:31:05.912Z,17.43
2018-11-03T03:33:34.141Z,16.73
2018-11-03T03:36:02.468Z,17.00
2018-11-03T03:38:30.672Z,16.77
2018-11-03T03:40:59.141Z,17.70
2018-11-03T03:43:27.328Z,17.10
2018-11-03T03:45:55.463Z,15.27
2018-11-03T03:48:23.627Z,16.30
2018-11-03T03:50:51.795Z,15.97
2018-11-03T03:53:20.022Z,15.90
2018-11-03T03:55:48.224Z,16.47
2018-11-03T03:58:16.405Z,16.70
2018-11-03T04:00:44.572Z,15.83
2018-11-03T04:03:12.743Z,16.10
2018-11-03T04:05:40.945Z,13.80
2018-11-03T04:08:09.165Z,14.70
2018-11-03T04:10:37.347Z,15.20
2018-11-03T04:13:06.004Z,16.03
2018-11-03T04:15:34.175Z,14.37
2018-11-03T04:18:02.492Z,16.03
2018-11-03T04:20:30.766Z,15.57
2018-11-03T04:22:58.930Z,14.43
2018-11-03T04:25:27.103Z,14.03
2018-11-03T04:27:55.297Z,13.93
2018-11-03T04:30:23.505Z,14.63
2018-11-03T04:32:51.712Z,14.33
2018-11-03T04:35:19.920Z,14.53
2018-11-03T04:37:48.137Z,14.33
2018-11-03T04:40:16.307Z,14.30
2018-11-03T04:42:44.500Z,14.83
2018-11-03T04:45:12.992Z,14.37
2018-11-03T04:47:41.508Z,15.17
2018-11-03T04:50:10.378Z,14.97
2018-11-03T04:52:38.675Z,14.97
2018-11-03T04:55:07.730Z,16.47
2018-11-03T04:57:35.945Z,14.30
2018-11-03T05:00:04.413Z,15.73
2018-11-03T05:02:32.600Z,14.33
2018-11-03T05:05:00.775Z,14.97
2018-11-03T05:07:28.979Z,14.93
2018-11-03T05:09:57.260Z,14.60
2018-11-03T05:12:25.726Z,13.43
2018-11-03T05:14:53.920Z,14.87
2018-11-03T05:17:22.095Z,14.00
2018-11-03T05:19:50.263Z,14.20
2018-11-03T05:22:18.443Z,14.43
2018-11-03T05:24:46.620Z,14.43
2018-11-03T05:27:14.780Z,14.00
2018-11-03T05:29:42.961Z,14.57
2018-11-03T05:32:11.139Z,13.63
2018-11-03T05:34:39.315Z,14.30
2018-11-03T05:37:07.507Z,13.00
2018-11-03T05:39:35.671Z,13.67
2018-11-03T05:42:03.847Z,14.13
2018-11-03T05:44:32.016Z,13.00
2018-11-03T05:47:00.273Z,14.77
2018-11-03T05:49:28.490Z,13.60
2018-11-03T05:51:56.685Z,13.47
2018-11-03T05:54:24.875Z,13.50
2018-11-03T05:56:53.051Z,13.77
2018-11-03T05:59:21.248Z,14.00
2018-11-03T06:01:49.422Z,13.50
2018-11-03T06:04:17.584Z,13.03
2018-11-03T06:06:45.784Z,13.40
2018-11-03T06:09:14.025Z,12.90
2018-11-03T06:11:42.156Z,12.60
2018-11-03T06:14:10.531Z,12.77
2018-11-03T06:16:38.687Z,13.30
2018-11-03T06:19:06.881Z,12.87
2018-11-03T06:21:35.082Z,12.67
2018-11-03T06:24:03.249Z,13.27
2018-11-03T06:26:31.435Z,11.97
2018-11-03T06:28:59.651Z,12.60
2018-11-03T06:31:27.907Z,11.40
2018-11-03T06:33:56.091Z,12.37
2018-11-03T06:36:24.266Z,11.87
2018-11-03T06:38:52.554Z,12.77
2018-11-03T06:41:20.675Z,12.80
2018-11-03T06:43:48.842Z,11.50
2018-11-03T06:46:17.019Z,10.37
2018-11-03T06:48:45.179Z,11.93
2018-11-03T06:51:13.355Z,13.30
2018-11-03T06:53:41.523Z,13.70
2018-11-03T06:56:09.686Z,11.67
2018-11-03T06:58:38.225Z,11.97
2018-11-03T07:01:06.390Z,11.93
2018-11-03T07:03:34.596Z,11.27
2018-11-03T07:06:02.783Z,11.87
2018-11-03T07:08:30.976Z,11.00
2018-11-03T07:10:59.189Z,11.90
2018-11-03T07:13:27.558Z,10.53
2018-11-03T07:15:55.660Z,11.10
2018-11-03T07:18:23.873Z,10.87
2018-11-03T07:20:52.060Z,11.10
2018-11-03T07:23:20.246Z,11.73
2018-11-03T07:25:48.724Z,10.47
2018-11-03T07:28:16.904Z,11.20
2018-11-03T07:30:45.091Z,10.40
2018-11-03T07:33:13.463Z,11.23
2018-11-03T07:35:41.654Z,11.47
2018-11-03T07:38:09.872Z,12.27
2018-11-03T07:40:38.132Z,11.07
2018-11-03T07:43:06.294Z,12.17
2018-11-03T07:45:34.471Z,11.03
2018-11-03T07:48:02.692Z,11.67
2018-11-03T07:50:30.888Z,11.00
2018-11-03T07:52:59.125Z,11.67
2018-11-03T07:55:27.324Z,12.00
2018-11-03T07:57:55.551Z,10.80
2018-11-03T08:00:23.744Z,11.43
2018-11-03T08:02:51.971Z,11.77
2018-11-03T08:05:20.180Z,11.10
2018-11-03T08:07:48.366Z,11.53
2018-11-03T08:10:16.576Z,11.50
2018-11-03T08:12:44.787Z,11.60
2018-11-03T08:15:12.966Z,12.13
2018-11-03T08:17:41.298Z,11.60
2018-11-03T08:20:10.623Z,11.23
2018-11-03T08:22:38.979Z,10.87
2018-11-03T08:25:07.489Z,12.43
2018-11-03T08:27:35.751Z,11.50
2018-11-03T08:30:04.323Z,12.13
2018-11-03T08:32:32.512Z,11.57
2018-11-03T08:35:00.703Z,13.10
2018-11-03T08:37:28.912Z,12.60
2018-11-03T08:39:57.532Z,12.70
2018-11-03T08:42:25.707Z,11.53
2018-11-03T08:44:53.874Z,14.03
2018-11-03T08:47:22.059Z,12.83
2018-11-03T08:49:50.240Z,11.70
2018-11-03T08:52:18.418Z,12.80
2018-11-03T08:54:46.851Z,11.77
2018-11-03T08:57:15.033Z,12.73
2018-11-03T08:59:43.329Z,12.43
2018-11-03T09:02:11.716Z,12.40
2018-11-03T09:04:39.933Z,12.30
2018-11-03T09:07:08.335Z,12.00
2018-11-03T09:09:36.372Z,12.07
2018-11-03T09:12:04.876Z,12.33
2018-11-03T09:14:33.061Z,12.67
2018-11-03T09:17:01.227Z,12.70
2018-11-03T09:19:29.386Z,13.57
2018-11-03T09:21:57.738Z,12.07
2018-11-03T09:24:25.767Z,12.83
2018-11-03T09:26:54.015Z,13.30
2018-11-03T09:29:22.174Z,14.20
2018-11-03T09:31:50.488Z,12.27
2018-11-03T09:34:18.579Z,13.67
2018-11-03T09:36:46.751Z,13.77
2018-11-03T09:39:15.002Z,15.67
2018-11-03T09:41:43.103Z,13.70
2018-11-03T09:44:11.304Z,14.33
2018-11-03T09:46:39.532Z,14.30
2018-11-03T09:49:07.723Z,15.53
2018-11-03T09:51:35.911Z,15.30
2018-11-03T09:54:04.231Z,15.23
2018-11-03T09:56:32.489Z,14.07
2018-11-03T09:59:00.639Z,15.97
2018-11-03T10:01:28.822Z,15.60
2018-11-03T10:03:57.022Z,15.03
2018-11-03T10:06:25.256Z,15.70
2018-11-03T10:08:53.432Z,15.67
2018-11-03T10:11:21.618Z,16.00
2018-11-03T10:13:49.833Z,14.53
2018-11-03T10:16:18.015Z,15.53
2018-11-03T10:18:46.190Z,16.67
2018-11-03T10:21:14.359Z,16.33
2018-11-03T10:23:42.539Z,15.53
2018-11-03T10:26:10.796Z,15.53
2018-11-03T10:28:40.047Z,16.23
2018-11-03T10:31:08.251Z,16.80
2018-11-03T10:33:36.449Z,15.93
2018-11-03T10:36:04.700Z,15.87
2018-11-03T10:38:32.912Z,15.10
2018-11-03T10:41:01.101Z,15.57
2018-11-03T10:43:29.283Z,16.33
2018-11-03T10:45:57.476Z,14.93
2018-11-03T10:48:25.665Z,15.23
2018-11-03T10:50:53.835Z,15.53
2018-11-03T10:53:22.035Z,16.37
2018-11-03T10:55:50.194Z,15.07
2018-11-03T10:58:18.450Z,14.90
2018-11-03T11:00:51.939Z,16.63
2018-11-03T11:03:25.695Z,16.80
2018-11-03T11:05:59.198Z,15.80
2018-11-03T11:08:32.932Z,16.37
2018-11-03T11:11:06.587Z,16.10
2018-11-03T11:13:36.325Z,15.20
2018-11-03T11:16:04.691Z,16.93
2018-11-03T11:18:32.903Z,16.50
2018-11-03T11:21:01.208Z,16.43
2018-11-03T11:23:29.533Z,16.77
2018-11-03T11:25:57.736Z,17.33
2018-11-03T11:28:26.046Z,15.40
2018-11-03T11:30:54.243Z,17.53
2018-11-03T11:33:22.431Z,16.17
2018-11-03T11:35:50.659Z,16.30
2018-11-03T11:38:18.928Z,16.57
2018-11-03T11:40:47.139Z,19.00
2018-11-03T11:43:15.688Z,18.97
2018-11-03T11:45:43.872Z,16.40
2018-11-03T11:48:12.124Z,17.63
2018-11-03T11:50:40.312Z,18.23
2018-11-03T11:53:08.491Z,18.30
2018-11-03T11:55:36.655Z,18.87
2018-11-03T11:58:05.590Z,18.27
2018-11-03T12:00:33.812Z,20.27
2018-11-03T12:03:01.976Z,20.47
2018-11-03T12:05:30.182Z,18.10
2018-11-03T12:07:58.350Z,19.37
2018-11-03T12:10:26.547Z,19.90
2018-11-03T12:12:54.754Z,20.50
2018-11-03T12:15:22.931Z,21.43
2018-11-03T12:17:51.166Z,20.73
2018-11-03T12:20:19.460Z,21.20
2018-11-03T12:22:47.728Z,22.47
2018-11-03T12:25:15.901Z,22.53
2018-11-03T12:27:44.125Z,22.30
2018-11-03T12:30:14.482Z,21.80
2018-11-03T12:32:42.811Z,23.53
2018-11-03T12:35:11.059Z,21.47
2018-11-03T12:37:39.723Z,21.27
2018-11-03T12:40:09.960Z,21.07
2018-11-03T12:42:38.243Z,20.93
2018-11-03T12:45:06.984Z,21.77
2018-11-03T12:47:35.203Z,21.77
2018-11-03T12:50:03.461Z,21.00
2018-11-03T12:52:32.204Z,21.83
2018-11-03T12:55:00.928Z,21.00
2018-11-03T12:57:29.115Z,19.43
2018-11-03T12:59:57.303Z,21.17
2018-11-03T13:02:25.520Z,20.20
2018-11-03T13:04:53.759Z,20.50
2018-11-03T13:07:21.911Z,22.50
2018-11-03T13:09:50.881Z,23.37
2018-11-03T13:12:19.125Z,25.20
2018-11-03T13:14:47.215Z,23.63
2018-11-03T13:17:15.467Z,22.43
2018-11-03T13:19:43.696Z,24.13
2018-11-03T13:22:11.929Z,22.70
2018-11-03T13:24:40.132Z,22.60
2018-11-03T13:27:08.328Z,23.70
2018-11-03T13:29:36.511Z,23.80
2018-11-03T13:32:04.994Z,23.70
2018-11-03T13:34:33.217Z,23.03
2018-11-03T13:37:01.570Z,22.87
2018-11-03T13:39:29.759Z,23.93
2018-11-03T13:41:57.943Z,23.23
2018-11-03T13:44:26.164Z,24.53
2018-11-03T13:46:54.342Z,24.77
2018-11-03T13:49:22.544Z,23.23
2018-11-03T13:51:50.720Z,25.73
2018-11-03T13:54:18.906Z,24.57
2018-11-03T13:56:47.110Z,24.47
2018-11-03T13:59:15.296Z,25.37
2018-11-03T14:01:43.491Z,23.63
2018-11-03T14:04:11.698Z,23.93
2018-11-03T14:06:39.980Z,23.60
2018-11-03T14:09:09.115Z,21.90
2018-11-03T14:11:37.379Z,22.10
2018-11-03T14:14:05.828Z,23.97
2018-11-03T14:16:34.238Z,22.67
2018-11-03T14:19:02.440Z,23.17
2018-11-03T14:21:30.673Z,22.87
2018-11-03T14:23:58.851Z,23.47
2018-11-03T14:26:27.039Z,22.97
2018-11-03T14:28:55.523Z,23.37
2018-11-03T14:31:23.696Z,24.63
2018-11-03T14:33:51.916Z,22.73
2018-11-03T14:36:20.256Z,21.73
2018-11-03T14:38:48.364Z,21.50
2018-11-03T14:41:16.688Z,21.77
2018-11-03T14:43:44.871Z,21.53
2018-11-03T14:46:13.067Z,22.63
2018-11-03T14:48:41.250Z,21.93
2018-11-03T14:51:09.577Z,23.30
2018-11-03T14:53:37.615Z,24.07
2018-11-03T14:56:05.818Z,23.30
2018-11-03T14:58:34.038Z,24.40
2018-11-03T15:01:02.273Z,24.53
2018-11-03T15:03:30.468Z,23.90
2018-11-03T15:05:58.663Z,22.03
2018-11-03T15:08:26.948Z,23.57
2018-11-03T15:10:55.181Z,23.47
2018-11-03T15:13:23.448Z,25.63
2018-11-03T15:15:51.568Z,25.10
2018-11-03T15:18:20.077Z,25.17
2018-11-03T15:20:48.247Z,26.13
2018-11-03T15:23:16.413Z,28.33
2018-11-03T15:25:44.586Z,26.13
2018-11-03T15:28:12.805Z,26.87
2018-11-03T15:30:40.983Z,27.70
2018-11-03T15:33:09.184Z,26.13
2018-11-03T15:35:37.350Z,28.87
2018-11-03T15:38:05.758Z,26.07
2018-11-03T15:40:34.026Z,26.33
2018-11-03T15:43:03.166Z,27.50
2018-11-03T15:45:31.372Z,28.53
2018-11-03T15:47:59.543Z,28.37
2018-11-03T15:50:27.754Z,29.57
2018-11-03T15:52:55.943Z,27.70
2018-11-03T15:55:24.140Z,29.03
2018-11-03T15:57:52.306Z,26.60
2018-11-03T16:00:21.441Z,28.73
2018-11-03T16:02:50.043Z,27.60
2018-11-03T16:05:18.277Z,29.20
2018-11-03T16:07:47.208Z,29.20
2018-11-03T16:10:15.403Z,31.57
2018-11-03T16:12:43.648Z,30.23
2018-11-03T16:15:12.626Z,31.10
2018-11-03T16:17:41.545Z,30.67
2018-11-03T16:20:10.911Z,31.70
2018-11-03T16:22:39.129Z,30.60
2018-11-03T16:25:07.979Z,29.10
2018-11-03T16:27:36.342Z,28.50
2018-11-03T16:30:06.230Z,29.03
2018-11-03T16:32:34.570Z,29.93
2018-11-03T16:35:02.642Z,29.93
2018-11-03T16:37:30.858Z,30.03
2018-11-03T16:39:59.045Z,31.53
2018-11-03T16:42:27.263Z,29.93
2018-11-03T16:44:55.449Z,29.63
2018-11-03T16:47:23.874Z,30.97
2018-11-03T16:49:52.062Z,30.63
2018-11-03T16:52:20.248Z,31.87
2018-11-03T16:54:48.411Z,31.97
2018-11-03T16:57:16.627Z,31.70
2018-11-03T16:59:44.791Z,32.80
2018-11-03T17:02:13.126Z,32.20
2018-11-03T17:04:41.309Z,32.37
2018-11-03T17:07:09.486Z,33.33
2018-11-03T17:09:37.666Z,32.10
2018-11-03T17:12:05.867Z,33.13
2018-11-03T17:14:34.054Z,34.73
2018-11-03T17:17:02.251Z,34.27
2018-11-03T17:19:30.492Z,32.50
2018-11-03T17:21:58.747Z,32.90
2018-11-03T17:24:26.944Z,33.73
2018-11-03T17:26:55.137Z,32.37
2018-11-03T17:29:23.314Z,32.03
2018-11-03T17:31:52.479Z,32.97
2018-11-03T17:34:20.762Z,33.43
2018-11-03T17:36:48.943Z,34.80
2018-11-03T17:39:17.152Z,33.50
2018-11-03T17:41:45.339Z,34.73
2018-11-03T17:44:13.678Z,34.43
2018-11-03T17:46:41.752Z,36.53
2018-11-03T17:49:09.931Z,35.80
2018-11-03T17:51:38.131Z,35.50
2018-11-03T17:54:06.383Z,36.17
2018-11-03T17:56:34.775Z,35.40
2018-11-03T17:59:02.967Z,37.37
2018-11-03T18:01:31.337Z,35.13
2018-11-03T18:03:59.384Z,38.07
2018-11-03T18:06:27.630Z,36.93
2018-11-03T18:08:55.853Z,37.03
2018-11-03T18:11:24.024Z,35.23
2018-11-03T18:13:52.214Z,36.13
2018-11-03T18:16:20.390Z,35.33
2018-11-03T18:18:48.596Z,36.70
2018-11-03T18:21:16.797Z,36.10
2018-11-03T18:23:45.017Z,37.07
2018-11-03T18:26:13.282Z,35.20
2018-11-03T18:28:41.462Z,33.43
2018-11-03T18:31:09.639Z,34.80
2018-11-03T18:33:37.846Z,35.13
2018-11-03T18:36:06.003Z,33.47
2018-11-03T18:38:34.205Z,36.73
2018-11-03T18:41:02.376Z,34.90
2018-11-03T18:43:30.538Z,32.40
2018-11-03T18:45:58.711Z,33.80
2018-11-03T18:48:26.928Z,33.47
2018-11-03T18:50:55.180Z,34.00
2018-11-03T18:53:23.367Z,32.87
2018-11-03T18:55:51.549Z,34.10
2018-11-03T18:58:19.756Z,33.03
2018-11-03T19:00:47.959Z,32.27
2018-11-03T19:03:16.155Z,31.97
2018-11-03T19:05:44.327Z,31.23
2018-11-03T19:08:12.531Z,29.17
2018-11-03T19:10:40.708Z,30.17
2018-11-03T19:13:09.283Z,29.03
2018-11-03T19:15:37.472Z,32.27
2018-11-03T19:18:05.688Z,31.23
2018-11-03T19:20:33.900Z,29.80
2018-11-03T19:23:02.147Z,28.97
2018-11-03T19:25:30.335Z,30.67
2018-11-03T19:27:58.527Z,32.93
2018-11-03T19:30:26.742Z,32.57
2018-11-03T19:32:54.920Z,29.67
2018-11-03T19:35:23.108Z,30.63
2018-11-03T19:37:52.241Z,29.63
2018-11-03T19:40:20.463Z,25.10
2018-11-03T19:42:48.675Z,27.93
2018-11-03T19:45:16.890Z,27.77
2018-11-03T19:47:45.059Z,26.90
2018-11-03T19:50:13.280Z,27.03
2018-11-03T19:52:41.462Z,28.07
2018-11-03T19:55:09.656Z,26.67
2018-11-03T19:57:37.834Z,27.43
2018-11-03T20:00:08.716Z,29.20
2018-11-03T20:02:36.941Z,28.23
2018-11-03T20:05:05.966Z,27.33
2018-11-03T20:07:34.202Z,27.70
2018-11-03T20:10:02.481Z,28.27
2018-11-03T20:12:30.604Z,26.50
2018-11-03T20:14:58.804Z,29.27
2018-11-03T20:17:27.173Z,27.63
2018-11-03T20:19:55.351Z,28.87
2018-11-03T20:22:23.539Z,26.43
2018-11-03T20:24:51.744Z,29.00
2018-11-03T20:27:19.915Z,27.90
2018-11-03T20:29:48.099Z,27.73
2018-11-03T20:32:16.320Z,28.30
2018-11-03T20:34:44.554Z,28.27
2018-11-03T20:37:12.778Z,28.03
2018-11-03T20:39:40.967Z,29.07
2018-11-03T20:42:09.135Z,28.37
2018-11-03T20:44:37.557Z,28.90
2018-11-03T20:47:07.123Z,23.33
2018-11-03T20:49:35.624Z,22.87
2018-11-03T20:52:04.216Z,26.47
2018-11-03T20:54:32.488Z,23.70
2018-11-03T20:57:00.962Z,24.80
2018-11-03T20:59:30.032Z,26.43
2018-11-03T21:01:58.576Z,25.27
2018-11-03T21:04:27.132Z,25.67
2018-11-03T21:06:55.525Z,25.73
2018-11-03T21:09:23.977Z,25.97
2018-11-03T21:11:52.158Z,25.63
2018-11-03T21:14:20.359Z,24.83
2018-11-03T21:16:48.534Z,27.43
2018-11-03T21:19:16.727Z,26.77
2018-11-03T21:21:45.130Z,26.80
2018-11-03T21:24:13.435Z,25.97
2018-11-03T21:26:41.592Z,25.70
2018-11-03T21:29:09.844Z,26.03
2018-11-03T21:31:38.191Z,25.40
2018-11-03T21:34:06.407Z,25.50
2018-11-03T21:36:34.611Z,24.60
2018-11-03T21:39:02.783Z,23.53
2018-11-03T21:41:31.008Z,22.13
2018-11-03T21:43:59.228Z,22.80
2018-11-03T21:46:27.461Z,23.97
2018-11-03T21:48:55.671Z,23.90
2018-11-03T21:51:23.859Z,23.37
2018-11-03T21:53:52.096Z,24.80
2018-11-03T21:56:20.288Z,25.23
2018-11-03T21:58:48.500Z,25.13
2018-11-03T22:01:16.812Z,24.67
2018-11-03T22:03:45.081Z,26.63
2018-11-03T22:06:13.267Z,24.50
2018-11-03T22:08:41.486Z,25.97
2018-11-03T22:11:09.750Z,25.53
2018-11-03T22:13:38.027Z,27.53
2018-11-03T22:16:06.288Z,25.30
2018-11-03T22:18:34.589Z,26.60
2018-11-03T22:21:02.759Z,26.57
2018-11-03T22:23:30.931Z,27.03
2018-11-03T22:25:59.136Z,29.20
2018-11-03T22:28:27.298Z,27.80
2018-11-03T22:30:55.512Z,29.13
2018-11-03T22:33:23.678Z,28.10
2018-11-03T22:35:51.914Z,28.80
2018-11-03T22:38:20.128Z,28.53
2018-11-03T22:40:48.298Z,31.10
2018-11-03T22:43:16.508Z,30.23
2018-11-03T22:45:44.700Z,30.30
2018-11-03T22:48:12.867Z,31.53
2018-11-03T22:50:41.039Z,29.83
2018-11-03T22:53:09.206Z,31.73
2018-11-03T22:55:37.383Z,29.97
2018-11-03T22:58:06.156Z,29.63
2018-11-03T23:00:38.670Z,32.53
2018-11-03T23:03:06.880Z,30.77
2018-11-03T23:05:35.068Z,32.40
2018-11-03T23:08:03.323Z,30.83
2018-11-03T23:10:31.560Z,31.30
2018-11-03T23:12:59.814Z,31.37
2018-11-03T23:15:27.951Z,33.67
2018-11-03T23:17:56.180Z,30.57
2018-11-03T23:20:24.359Z,31.13
2018-11-03T23:22:52.605Z,29.53
2018-11-03T23:25:20.905Z,29.50
2018-11-03T23:27:49.103Z,32.30
2018-11-03T23:30:17.579Z,30.80
2018-11-03T23:32:45.818Z,32.17
2018-11-03T23:35:14.445Z,29.83
2018-11-03T23:37:42.981Z,30.50
2018-11-03T23:40:11.718Z,27.83
2018-11-03T23:42:39.964Z,25.73
2018-11-03T23:45:08.862Z,25.47
2018-11-03T23:47:43.230Z,25.03
2018-11-03T23:50:12.977Z,22.53
2018-11-03T23:52:45.275Z,24.40
2018-11-03T23:55:13.504Z,24.83
2018-11-03T23:57:41.720Z,23.70
